Flight Track Log - Related Links

Times and Time Zones

All times are in EDT time to prevent confusion due to time zone crossing. See the RPA3392 flight status page for this flight to view local times or setup timezone preferences in your user account.

Time Position Orientation Groundspeed Altitude Reporting Facility
EDT Latitude Longitude Course Direction KTS MPH feet Rate Location/Type
Thu 10:20:30 PM 38.8833 -77.0667 90° East 159 183 1,800  Level Potomac TRACON
Thu 10:21:24 PM 38.9333 -77.1167 322° Northwest 210 242 4,600 3,200 Climbing Potomac TRACON
Thu 10:22:00 PM 38.9716 -76.6735 57° Northeast  Level FlightAware Approximate
Thu 10:22:30 PM 38.9667 -77.1667 311° West 208 239 8,200  Level Potomac TRACON
Thu 10:23:00 PM 39.0206 -76.5549 67° East  Level FlightAware Approximate
Thu 10:23:31 PM 39.0333 -77.1333 21° North 240 276 9,100  Level Potomac TRACON
Thu 10:24:00 PM 39.0665 -76.4338 63° Northeast  Level FlightAware Approximate
Thu 10:25:00 PM 39.1167 -76.3155 90° East  Level FlightAware Approximate
Thu 10:25:19 PM 39.0928 -77.0089 58° Northeast 266 306 12,200  Level Washington Center
Thu 10:26:17 PM 39.1025 -76.8808 84° East 302 348 14,300 2,390 Climbing Washington Center
Thu 10:27:17 PM 39.1119 -76.7525 85° East 334 384 16,900 2,400 Climbing Washington Center
Thu 10:28:17 PM 39.1194 -76.6217 86° East 352 405 19,100 2,164 Climbing Washington Center
Thu 10:29:19 PM 39.1289 -76.4825 85° East 372 428 21,300 1,950 Climbing Washington Center
Thu 10:30:17 PM 39.1547 -76.3464 76° East 384 442 23,000 864 Climbing Washington Center
Thu 10:31:17 PM 39.1889 -76.2128 72° East 384 442 23,000  Level Washington Center
Thu 10:32:18 PM 39.2311 -76.0819 67° East 391 450 23,000  Level Washington Center
Thu 10:33:19 PM 39.2922 -75.9644 56° Northeast 391 450 23,000 403 Level Washington Center
Thu 10:34:17 PM 39.3550 -75.8439 56° Northeast 393 452 23,800 1,008 Climbing Washington Center
Thu 10:35:18 PM 39.4156 -75.7233 57° Northeast 398 458 25,000 992 Climbing Washington Center
Thu 10:36:18 PM 39.4803 -75.6022 55° Northeast 398 458 25,800 1,000 Climbing Washington Center
Thu 10:37:18 PM 39.5447 -75.4811 55° Northeast 398 458 27,000 1,107 Climbing Washington Center
Thu 10:39:06 PM 39.6672 -75.2667 53° Northeast 405 466 28,900 719 Climbing New York Center
Thu 10:40:05 PM 39.7381 -75.1578 50° Northeast 398 458 29,000 50 Climbing New York Center
Thu 10:41:06 PM 39.8106 -75.0542 48° Northeast 398 458 29,000  Level New York Center
Thu 10:42:06 PM 39.8853 -74.9506 47° Northeast 392 451 29,000  Level New York Center
Thu 10:43:04 PM 39.9578 -74.8464 48° Northeast 398 458 29,000  Level New York Center
Thu 10:44:05 PM 40.0422 -74.7483 42° Northeast 398 458 29,000  Level New York Center
Thu 10:45:06 PM 40.1206 -74.6525 43° Northeast 393 452 29,000  Level New York Center
Thu 10:46:04 PM 40.2050 -74.5594 40° Northeast 388 447 29,000  Level New York Center
Thu 10:47:07 PM 40.2894 -74.4525 44° Northeast 383 441 29,000  Level New York Center
Thu 10:49:05 PM 40.4494 -74.2700 41° Northeast 383 441 29,000 -202 Level New York Center
Thu 10:50:05 PM 40.5292 -74.1731 43° Northeast 383 441 28,400 -947 Descending New York Center
Thu 10:52:15 PM 40.6956 -73.9758 42° Northeast 373 429 26,000 -1,358 Descending Boston Center
Thu 10:53:15 PM 40.7717 -73.8897 41° Northeast 367 422 24,100 -1,000 Descending Boston Center
Thu 10:54:15 PM 40.8458 -73.8008 42° Northeast 362 417 24,000 -300 Descending Boston Center
Thu 10:55:15 PM 40.9156 -73.7117 44° Northeast 356 410 23,500 -500 Descending Boston Center
Thu 10:56:15 PM 40.9811 -73.6389 40° Northeast 346 398 23,000 -250 Descending Boston Center
Thu 10:57:15 PM 41.0894 -73.6436 358° North 321 369 23,000 -500 Level Boston Center
Thu 10:58:15 PM 41.1767 -73.6561 354° North 321 369 22,000 -1,500 Descending Boston Center
Thu 10:59:15 PM 41.2683 -73.6664 355° North 321 369 20,000 -1,050 Descending Boston Center
Thu 11:00:15 PM 41.3619 -73.6708 358° North 331 381 19,900 -1,050 Descending Boston Center
Thu 11:01:15 PM 41.4494 -73.6781 356° North 331 381 17,900 -1,950 Descending Boston Center
Thu 11:02:15 PM 41.5286 -73.6850 356° North 324 373 16,000 -1,909 Descending Boston Center
Thu 11:03:27 PM 41.6222 -73.6953 355° North 309 356 13,700 -2,136 Descending Boston Center
Thu 11:04:27 PM 41.7244 -73.7056 356° North 303 349 11,300 -1,350 Descending Boston Center
Thu 11:05:27 PM 41.8014 -73.7156 354° North 290 334 11,000 -150 Descending Boston Center
Thu 11:06:27 PM 41.8783 -73.7200 358° North 280 322 11,000  Level Boston Center
Thu 11:07:24 PM 41.9492 -73.7297 354° North 278 320 11,000  Level Boston Center
Thu 11:08:07 PM 42.0094 -73.7308 359° North 280 322 11,000  Level Boston Center
Thu 11:08:27 PM 42.0344 -73.7342 354° North 275 316 11,000  Level Boston Center
Thu 11:09:07 PM 42.0886 -73.7439 352° North 283 326 11,000  Level Boston Center
Thu 11:09:27 PM 42.1117 -73.7414 North 275 316 11,000  Level Boston Center
Thu 11:10:02 PM 42.1553 -73.7481 354° North 283 326 11,000  Level Boston Center
Thu 11:10:27 PM 42.1822 -73.7486 359° North 275 316 11,000 -700 Level Boston Center
Thu 11:11:02 PM 42.2364 -73.7581 353° North 277 319 10,300 -800 Descending Boston Center
Thu 11:11:27 PM 42.2614 -73.7558 North 270 311 10,200 -787 Descending Boston Center
Thu 11:12:03 PM 42.3008 -73.7650 350° North 226 260 9,500 -1,000 Descending Boston Center
Thu 11:12:27 PM 42.3178 -73.7625 North 237 273 9,200 -1,180 Descending Boston Center
Thu 11:13:04 PM 42.3592 -73.7692 353° North 193 222 8,300 -1,600 Descending Boston Center
Thu 11:13:27 PM 42.3781 -73.7694 359° North 207 238 7,600 -1,900 Descending Boston Center
Thu 11:14:04 PM 42.4114 -73.7758 352° North 192 221 6,400 -1,800 Descending Boston Center
Thu 11:14:27 PM 42.4281 -73.7761 359° North 195 224 5,800 -1,869 Descending Boston Center
Thu 11:15:05 PM 42.4653 -73.7825 353° North 192 221 4,500 -1,750 Descending Boston Center
Thu 11:15:39 PM 42.4864 -73.7831 359° North 195 224 3,700 -1,475 Descending Boston Center
Thu 11:16:06 PM 42.5175 -73.7867 355° North 191 220 3,000 -700 Descending Boston Center
Thu 11:16:39 PM 42.5486 -73.7900 355° North 195 224 3,000  Level Boston Center
Thu 11:17:06 PM 42.5694 -73.7933 353° North 182 209 3,000  Level Boston Center
Thu 11:17:39 PM 42.5944 -73.7939 359° North 179 206 3,000 -218 Level Boston Center
Thu 11:18:01 PM 42.6089 -73.7997 343° North 163 188 2,800 -900 Descending Boston Center
Thu 11:18:39 PM 42.6319 -73.8003 359° North 174 200 2,100 -900 Descending Boston Center
Thu 11:19:01 PM 42.6547 -73.8036 354° North 162 186 1,900 -545 Descending Boston Center

Login

Don't have an account? Register now (free) for customized features, flight alerts, and more!